Hinckley, United Kingdom
Current Conditions -  °F | °C
As of 10:20 PM on Wednesday 28 Jan 2015 (Local Time) from EGBE Reporting Station
Snow Showers Snow Showers  
Wind Chill: 25°   Ceiling: Unl
Heat Index: 36°   Visibility: 6mi
Dew Point: 32°   Wind: 20mph
Humidity: 87%   Direction: 240°WSW
Pressure: 29.44"   Gusts: 31mph
Location:  52.54°N, 1.37°W
Report Text: EGBE 282220Z 24017G27KT 9999 4000NE -SHSN FEW009 SCT019 02/00 Q0997
Loading
Personal Weather Stations






























Interactive Weather Map New forecast layout! Learn more

10-Day Weather Forecast

Advertisements
Track Severe Weather on mobile